Time;durP1;ratioP1;P1;durP2;ratioP2;P2;SDS_P1;SDS_P2;PMS_P1;PMS_P2;Temp;Humidity;BMP_temperature;BMP_pressure;BME280_temperature;BME280_humidity;BME280_pressure;Samples;Min_cycle;Max_cycle;Signal;HPM_P1;HPM_P2
2022/06/29 00:00:15;;;;;;;31.13;13.80;;;;;;;23.99;79.62;98411.72;5064181;28;20493;-92
2022/06/29 00:02:43;;;;;;;37.88;13.13;;;;;;;23.86;80.24;98392.06;5092523;28;20084;-92
2022/06/29 00:05:11;;;;;;;30.30;13.10;;;;;;;23.87;80.54;98407.34;5092595;28;20041;-91
2022/06/29 00:07:37;;;;;;;38.73;13.57;;;;;;;23.71;80.71;98381.50;5091178;28;20047;-92
2022/06/29 00:10:04;;;;;;;29.67;12.80;;;;;;;23.68;80.56;98378.19;5091899;28;20048;-91
2022/06/29 00:12:31;;;;;;;32.75;13.38;;;;;;;23.61;81.17;98371.59;5091615;28;20501;-92
2022/06/29 00:14:58;;;;;;;34.30;12.70;;;;;;;23.66;81.20;98383.78;5091922;28;20070;-95
2022/06/29 00:17:25;;;;;;;33.70;12.80;;;;;;;23.56;82.18;98382.84;5092048;28;20514;-93
2022/06/29 00:19:53;;;;;;;33.33;12.52;;;;;;;23.55;82.82;98392.84;5091620;28;20131;-91
2022/06/29 00:22:22;;;;;;;38.80;13.07;;;;;;;23.37;83.22;98370.00;5091588;28;20040;-92
2022/06/29 00:24:53;;;;;;;34.50;12.77;;;;;;;23.35;83.69;98369.28;5091066;28;20075;-92
2022/06/29 00:27:19;;;;;;;37.05;13.27;;;;;;;23.39;83.82;98376.16;5091367;28;20127;-93
2022/06/29 00:29:45;;;;;;;38.92;14.73;;;;;;;23.33;84.34;98368.53;5090779;28;20121;-93
2022/06/29 00:32:16;;;;;;;27.75;13.00;;;;;;;23.43;84.15;98379.47;5090781;28;20327;-93
2022/06/29 00:34:46;;;;;;;31.90;12.45;;;;;;;23.29;84.20;98356.22;5090399;28;20036;-92
2022/06/29 00:37:30;;;;;;;33.22;13.60;;;;;;;23.28;83.88;98359.94;5090920;28;20041;-93
2022/06/29 00:40:02;;;;;;;27.20;12.80;;;;;;;23.27;83.99;98358.22;5090888;28;20048;-93
2022/06/29 00:42:31;;;;;;;36.70;13.07;;;;;;;23.20;84.42;98351.59;5090942;28;20044;-92
2022/06/29 00:44:57;;;;;;;33.45;12.07;;;;;;;23.14;84.12;98350.28;5091563;28;20473;-93
2022/06/29 00:47:23;;;;;;;33.92;13.15;;;;;;;23.15;84.55;98361.00;5091311;28;20513;-92
2022/06/29 00:49:50;;;;;;;28.85;12.73;;;;;;;23.28;84.39;98381.66;5090925;28;20045;-93
2022/06/29 00:52:22;;;;;;;35.72;12.68;;;;;;;23.11;85.24;98364.94;5090483;28;20032;-93
2022/06/29 00:54:53;;;;;;;35.95;13.00;;;;;;;23.02;85.05;98351.31;5089775;28;20064;-93
2022/06/29 00:57:21;;;;;;;33.28;12.60;;;;;;;23.11;84.68;98373.09;5089929;28;20043;-92
2022/06/29 00:59:55;;;;;;;31.67;12.80;;;;;;;23.08;84.82;98358.94;5089269;28;20085;-92
2022/06/29 01:02:24;;;;;;;28.83;12.88;;;;;;;23.21;84.81;98377.75;5090454;28;20048;-93
2022/06/29 01:04:54;;;;;;;33.53;13.10;;;;;;;23.17;84.87;98374.44;5090201;28;20044;-91
2022/06/29 01:07:26;;;;;;;29.33;13.02;;;;;;;23.19;84.65;98379.72;5082328;28;20102;-92
2022/06/29 01:09:55;;;;;;;31.70;12.82;;;;;;;23.04;84.69;98358.34;5077223;28;20041;-93
2022/06/29 01:12:22;;;;;;;29.02;11.98;;;;;;;23.06;84.18;98358.22;5077056;28;20045;-92
2022/06/29 01:14:50;;;;;;;33.72;13.23;;;;;;;23.24;84.48;98388.31;5077585;28;20520;-93
2022/06/29 01:17:17;;;;;;;30.70;13.43;;;;;;;23.12;84.01;98365.84;5077762;28;20052;-91
2022/06/29 01:19:44;;;;;;;34.97;12.48;;;;;;;23.23;83.13;98364.91;5077711;28;20098;-93
2022/06/29 01:22:15;;;;;;;34.78;12.52;;;;;;;23.22;83.50;98368.59;5078007;28;20041;-93
2022/06/29 01:24:44;;;;;;;25.77;11.77;;;;;;;23.22;83.39;98366.75;5077290;28;20523;-93
2022/06/29 01:27:10;;;;;;;33.38;13.27;;;;;;;23.14;83.08;98351.16;5076313;28;20075;-93
2022/06/29 01:29:37;;;;;;;35.78;13.65;;;;;;;23.19;83.54;98364.31;5076833;28;20106;-92
2022/06/29 01:32:03;;;;;;;34.60;12.43;;;;;;;23.06;83.45;98347.38;5076568;28;20041;-93
2022/06/29 01:34:32;;;;;;;29.63;12.30;;;;;;;23.16;83.54;98368.16;5076541;28;20048;-93
2022/06/29 01:36:59;;;;;;;27.38;12.50;;;;;;;22.98;83.98;98350.69;5076792;28;20131;-91
2022/06/29 01:39:28;;;;;;;30.55;12.68;;;;;;;22.99;83.74;98344.28;5076634;28;20071;-92
2022/06/29 01:41:55;;;;;;;34.22;12.18;;;;;;;22.91;84.16;98334.06;5077242;28;20490;-94
2022/06/29 01:44:20;;;;;;;30.65;12.95;;;;;;;22.86;84.12;98336.34;5076800;28;20127;-92
2022/06/29 01:46:47;;;;;;;32.88;13.48;;;;;;;22.84;83.81;98329.31;5077153;28;20056;-94
2022/06/29 01:49:15;;;;;;;29.73;11.98;;;;;;;22.99;84.43;98360.56;5076091;28;20551;-93
2022/06/29 01:51:43;;;;;;;33.58;12.43;;;;;;;22.89;84.42;98357.75;5077200;28;20040;-93
2022/06/29 01:54:11;;;;;;;30.02;12.05;;;;;;;22.91;84.44;98360.34;5076026;28;20036;-92
2022/06/29 01:56:39;;;;;;;25.15;12.13;;;;;;;22.89;84.28;98346.03;5076198;28;20048;-93
2022/06/29 01:59:04;;;;;;;35.38;12.57;;;;;;;22.68;84.78;98330.59;5077918;28;20046;-92
2022/06/29 02:01:33;;;;;;;37.05;13.00;;;;;;;22.66;84.58;98324.47;5077388;28;20072;-93
2022/06/29 02:03:59;;;;;;;32.42;12.52;;;;;;;22.95;84.21;98359.94;5079332;28;20037;-92
2022/06/29 02:06:25;;;;;;;29.00;12.93;;;;;;;22.85;83.86;98326.47;5075392;28;20040;-93
2022/06/29 02:08:52;;;;;;;31.65;12.10;;;;;;;22.93;83.53;98333.97;5076378;28;20127;-93
2022/06/29 02:11:19;;;;;;;32.72;11.80;;;;;;;22.90;82.82;98317.94;5075286;28;20045;-90
2022/06/29 02:13:47;;;;;;;31.48;11.60;;;;;;;22.97;82.76;98324.56;5075351;28;20121;-92
2022/06/29 02:16:13;;;;;;;33.30;12.30;;;;;;;23.04;83.10;98335.78;5074826;28;20033;-93
2022/06/29 02:18:39;;;;;;;29.95;11.20;;;;;;;23.07;82.57;98339.06;5074227;28;20072;-93
2022/06/29 02:21:10;;;;;;;;;;;;;;;23.11;82.75;98345.13;5076325;28;20045;-92
2022/06/29 02:23:36;;;;;;;33.15;12.27;;;;;;;23.08;82.99;98346.25;5076250;28;19962;-94
2022/06/29 02:26:06;;;;;;;25.33;11.73;;;;;;;22.96;82.78;98329.13;5076942;28;20048;-91
2022/06/29 02:28:34;;;;;;;30.98;11.90;;;;;;;22.94;83.06;98319.41;5076783;28;20040;-93
2022/06/29 02:37:03;;;;;;;28.95;11.80;;;;;;;22.77;83.83;98337.13;5114505;27;20716;-94
2022/06/29 02:39:33;;;;;;;30.33;11.40;;;;;;;22.57;83.95;98308.94;5116361;28;20032;-93
2022/06/29 02:42:08;;;;;;;24.70;12.50;;;;;;;22.61;84.35;98334.81;5114100;28;20075;-91
2022/06/29 02:44:36;;;;;;;25.73;12.20;;;;;;;22.53;85.21;98330.03;5115222;28;20043;-92
2022/06/29 02:47:02;;;;;;;31.05;11.63;;;;;;;22.66;85.03;98347.97;5112020;28;20488;-92
2022/06/29 02:49:31;;;;;;;26.75;11.65;;;;;;;22.58;84.55;98332.38;5112185;28;20122;-91
2022/06/29 02:52:02;;;;;;;23.83;11.40;;;;;;;22.54;84.61;98325.47;5112618;28;20033;-94
2022/06/29 02:54:45;;;;;;;37.13;11.65;;;;;;;22.59;84.33;98328.66;5101218;28;20507;-92
2022/06/29 02:57:24;;;;;;;29.33;11.65;;;;;;;22.62;83.97;98322.09;5113302;28;20047;-92
2022/06/29 02:59:58;;;;;;;26.35;11.85;;;;;;;22.65;83.98;98335.41;5113381;28;20122;-93
2022/06/29 03:02:25;;;;;;;27.00;11.18;;;;;;;22.64;84.40;98334.56;5113435;28;20085;-93
2022/06/29 03:04:51;;;;;;;28.70;11.32;;;;;;;22.55;83.85;98319.94;5112200;28;20104;-95
2022/06/29 03:07:28;;;;;;;24.95;11.45;;;;;;;22.67;84.03;98345.13;5112320;28;20393;-95
2022/06/29 03:10:09;;;;;;;33.45;11.43;;;;;;;22.72;83.52;98345.59;5111995;28;20047;-92
2022/06/29 03:12:35;;;;;;;32.10;10.52;;;;;;;22.73;83.40;98343.78;5111790;28;20093;-94
2022/06/29 03:15:03;;;;;;;32.22;10.98;;;;;;;22.70;82.90;98333.19;5113087;28;20435;-92
2022/06/29 03:17:40;;;;;;;24.38;10.95;;;;;;;22.82;82.38;98337.56;5113610;28;20047;-92
2022/06/29 03:20:16;;;;;;;28.15;11.43;;;;;;;22.87;81.41;98353.44;5113632;28;20044;-93
2022/06/29 03:22:46;;;;;;;28.30;10.98;;;;;;;22.89;81.03;98340.63;5106369;28;20074;-94
2022/06/29 03:25:16;;;;;;;30.80;12.50;;;;;;;22.79;81.21;98347.81;5112574;28;20056;-92
2022/06/29 03:27:50;;;;;;;26.55;11.88;;;;;;;22.73;81.79;98335.66;5113125;28;20040;-92
2022/06/29 03:30:19;;;;;;;26.52;11.27;;;;;;;22.64;81.84;98330.97;5114911;28;20489;-94
2022/06/29 03:32:50;;;;;;;31.73;11.27;;;;;;;22.71;81.77;98343.91;5113687;28;20032;-92
2022/06/29 03:35:19;;;;;;;27.15;11.60;;;;;;;22.71;82.38;98359.31;5112983;28;20043;-93
2022/06/29 03:37:50;;;;;;;29.80;11.70;;;;;;;22.46;82.80;98330.66;5114070;28;20118;-94
2022/06/29 03:40:25;;;;;;;24.70;11.48;;;;;;;22.43;83.12;98330.94;5114170;28;20050;-93
2022/06/29 03:42:51;;;;;;;33.75;12.57;;;;;;;22.60;83.44;98362.91;5110820;28;20048;-94
2022/06/29 03:45:22;;;;;;;30.13;11.98;;;;;;;22.62;83.23;98369.06;5111677;28;20122;-93
2022/06/29 03:47:51;;;;;;;29.63;12.23;;;;;;;22.56;83.05;98367.72;5100860;28;20036;-94
2022/06/29 03:50:17;;;;;;;28.40;11.30;;;;;;;22.43;82.96;98334.50;5097772;28;20473;-93
2022/06/29 03:52:46;;;;;;;25.85;10.93;;;;;;;22.59;83.03;98369.31;5098114;28;20518;-93
2022/06/29 03:55:12;;;;;;;;;;;;;;;22.57;83.19;98365.84;5100132;28;20501;-94
2022/06/29 03:57:39;;;;;;;28.77;11.50;;;;;;;22.52;83.00;98365.38;5099643;28;19920;-95
2022/06/29 04:00:06;;;;;;;27.80;11.15;;;;;;;22.35;82.97;98337.81;5098946;28;20040;-94
2022/06/29 04:02:35;;;;;;;28.30;11.70;;;;;;;22.46;82.61;98360.47;5098201;28;20427;-93
2022/06/29 04:05:04;;;;;;;24.13;11.38;;;;;;;22.39;81.95;98332.16;5097817;28;20040;-91
2022/06/29 04:07:30;;;;;;;33.67;10.95;;;;;;;22.56;82.07;98365.00;5096023;28;20040;-94
2022/06/29 04:10:00;;;;;;;26.17;10.90;;;;;;;22.64;82.03;98380.66;5097598;28;20501;-93
2022/06/29 04:12:33;;;;;;;24.17;11.18;;;;;;;22.44;82.02;98346.19;5097856;28;20051;-93
2022/06/29 04:15:05;;;;;;;27.42;11.23;;;;;;;22.46;81.61;98346.91;5096173;28;20036;-92
2022/06/29 04:17:31;;;;;;;28.50;11.45;;;;;;;22.64;81.89;98375.22;5095138;28;20044;-93
2022/06/29 04:19:59;;;;;;;26.10;11.20;;;;;;;22.47;81.83;98340.53;5096719;28;20032;-95
2022/06/29 04:22:28;;;;;;;29.38;10.98;;;;;;;22.52;81.97;98352.69;5098059;28;20131;-93
2022/06/29 04:24:54;;;;;;;35.78;11.20;;;;;;;22.61;82.16;98363.75;5097063;28;20051;-90
2022/06/29 04:27:20;;;;;;;29.13;10.90;;;;;;;22.64;81.55;98364.38;5096978;28;20040;-94
2022/06/29 04:29:46;;;;;;;35.25;11.98;;;;;;;22.64;81.40;98368.91;5096398;28;20044;-94
2022/06/29 04:32:13;;;;;;;29.15;11.70;;;;;;;22.65;81.54;98362.53;5096638;28;20139;-94
2022/06/29 04:34:39;;;;;;;26.40;10.55;;;;;;;22.66;81.87;98367.81;5095979;28;20052;-93
2022/06/29 04:37:07;;;;;;;28.90;12.27;;;;;;;22.57;81.81;98352.31;5096454;28;20062;-92
2022/06/29 04:39:33;;;;;;;21.37;10.20;;;;;;;22.74;82.26;98378.88;5095482;28;20494;-92
2022/06/29 04:42:02;;;;;;;24.98;10.95;;;;;;;22.55;82.02;98357.00;5096474;28;20044;-95
2022/06/29 04:44:27;;;;;;;;;;;;;;;22.79;81.90;98394.75;5097945;28;20070;-94
2022/06/29 04:46:54;;;;;;;28.60;11.25;;;;;;;22.57;82.05;98355.03;5097553;28;19915;-93
2022/06/29 04:49:27;;;;;;;22.80;10.52;;;;;;;22.67;82.81;98385.78;5097345;28;20036;-94
2022/06/29 04:51:55;;;;;;;31.17;10.85;;;;;;;22.57;82.23;98357.72;5096657;28;20047;-95
2022/06/29 04:54:31;;;;;;;34.58;11.55;;;;;;;22.62;82.13;98360.94;5098283;28;20040;-95
2022/06/29 04:57:01;;;;;;;28.92;11.00;;;;;;;23.00;80.57;98372.25;5099226;28;20051;-93
2022/06/29 04:59:27;;;;;;;25.95;11.45;;;;;;;23.60;78.75;98388.88;5096154;28;20028;-92
2022/06/29 05:01:53;;;;;;;23.85;10.30;;;;;;;23.56;76.87;98381.00;5098245;28;20058;-92
2022/06/29 05:04:19;;;;;;;25.60;10.77;;;;;;;23.69;77.18;98382.66;5096701;28;20051;-93
2022/06/29 05:06:46;;;;;;;24.63;10.73;;;;;;;23.55;76.24;98365.72;5099209;28;20035;-94
2022/06/29 05:09:12;;;;;;;25.95;10.63;;;;;;;23.74;75.75;98370.38;5098960;28;20043;-94
2022/06/29 05:11:41;;;;;;;26.40;10.15;;;;;;;24.09;75.77;98400.88;5097587;28;20067;-93
2022/06/29 05:14:09;;;;;;;24.10;9.98;;;;;;;24.01;75.05;98397.97;5098519;28;20051;-94
2022/06/29 05:16:38;;;;;;;25.50;9.20;;;;;;;23.50;75.19;98383.38;5099062;28;20135;-93
2022/06/29 05:19:06;;;;;;;26.13;10.30;;;;;;;23.56;75.44;98366.56;5097757;28;20114;-94
2022/06/29 05:21:34;;;;;;;19.83;9.60;;;;;;;23.99;71.96;98374.53;5097324;28;20123;-94
2022/06/29 05:24:04;;;;;;;21.52;9.95;;;;;;;24.28;71.09;98406.41;5099881;28;20044;-93
2022/06/29 05:26:34;;;;;;;18.20;7.63;;;;;;;24.28;68.32;98387.38;5100012;28;20036;-93
2022/06/29 05:29:05;;;;;;;22.27;7.95;;;;;;;24.62;66.25;98369.94;5098558;28;20485;-96
2022/06/29 05:31:31;;;;;;;21.55;7.30;;;;;;;24.57;65.65;98387.50;5098366;28;20040;-95
2022/06/29 05:33:57;;;;;;;21.67;7.45;;;;;;;23.88;66.84;98382.78;5098210;28;20101;-95
2022/06/29 05:36:23;;;;;;;22.08;7.13;;;;;;;23.49;68.25;98382.53;5099902;28;20113;-93
2022/06/29 05:38:55;;;;;;;18.92;6.93;;;;;;;23.41;68.80;98387.75;5098520;28;20400;-94
2022/06/29 05:41:29;;;;;;;14.65;5.95;;;;;;;23.44;67.09;98430.03;5101389;28;20416;-91
2022/06/29 05:43:57;;;;;;;17.33;6.53;;;;;;;23.04;68.11;98396.31;5100031;28;20037;-93
2022/06/29 05:46:27;;;;;;;13.75;5.80;;;;;;;23.20;67.44;98422.13;5096412;28;20509;-94
2022/06/29 05:48:54;;;;;;;13.07;5.45;;;;;;;23.02;67.33;98406.41;5098776;28;20401;-94
2022/06/29 05:51:20;;;;;;;15.35;5.20;;;;;;;22.88;67.85;98403.97;5098076;28;20105;-95
2022/06/29 05:53:53;;;;;;;14.45;4.80;;;;;;;22.99;67.23;98417.50;5096550;28;20040;-96
2022/06/29 05:56:19;;;;;;;11.15;4.63;;;;;;;22.97;65.98;98422.19;5097406;28;20124;-93
2022/06/29 05:58:48;;;;;;;11.90;4.57;;;;;;;23.05;66.85;98421.56;5096024;28;20082;-94
2022/06/29 06:01:14;;;;;;;16.33;4.88;;;;;;;23.53;64.27;98423.81;5096877;28;20101;-95
2022/06/29 06:03:49;;;;;;;10.50;4.47;;;;;;;23.99;62.39;98417.16;5095336;28;20036;-96
2022/06/29 06:06:15;;;;;;;15.30;4.60;;;;;;;24.49;61.75;98402.78;5098572;28;20032;-94
2022/06/29 06:08:41;;;;;;;9.77;4.07;;;;;;;24.97;59.32;98429.22;5097764;28;20086;-93
2022/06/29 06:11:16;;;;;;;11.95;4.20;;;;;;;25.23;59.40;98431.44;5096767;28;20044;-93
2022/06/29 06:13:47;;;;;;;14.27;4.40;;;;;;;25.29;57.28;98414.53;5096788;28;20036;-93
2022/06/29 06:16:12;;;;;;;11.52;4.28;;;;;;;24.84;58.88;98413.19;5096721;28;20389;-92
2022/06/29 06:18:39;;;;;;;15.15;5.00;;;;;;;24.71;59.32;98439.78;5095470;28;20036;-93
2022/06/29 06:21:05;;;;;;;11.65;4.30;;;;;;;24.47;60.61;98459.97;5097147;28;20048;-94
2022/06/29 06:23:33;;;;;;;9.98;3.85;;;;;;;24.44;59.64;98429.47;5098327;28;20048;-94
2022/06/29 06:25:59;;;;;;;;;;;;;;;24.95;58.69;98444.84;5096459;28;20055;-94
2022/06/29 06:28:25;;;;;;;11.10;3.85;;;;;;;24.72;58.49;98409.72;5096743;28;19920;-93
2022/06/29 06:31:00;;;;;;;12.80;3.72;;;;;;;24.77;57.72;98412.88;5098655;28;20539;-96
2022/06/29 06:33:32;;;;;;;15.40;4.10;;;;;;;24.86;56.16;98418.47;5098165;28;20055;-94
2022/06/29 06:35:58;;;;;;;10.25;4.13;;;;;;;25.05;56.63;98458.44;5097844;28;20197;-93
2022/06/29 06:38:24;;;;;;;9.60;3.80;;;;;;;25.15;56.30;98448.44;5097701;28;20048;-93
2022/06/29 06:44:20;;;;;;;9.57;3.70;;;;;;;25.17;56.92;98441.84;5115253;27;20392;-94
2022/06/29 06:46:48;;;;;;;12.38;3.45;;;;;;;25.20;54.90;98459.81;5115534;28;20036;-93
2022/06/29 06:49:14;;;;;;;9.23;3.13;;;;;;;25.02;55.38;98445.97;5114513;28;20042;-94
2022/06/29 06:51:43;;;;;;;12.23;3.10;;;;;;;24.68;55.23;98435.47;5117001;28;20119;-95
2022/06/29 06:54:20;;;;;;;8.10;3.67;;;;;;;24.86;55.05;98432.06;5114901;28;20074;-93
2022/06/29 06:56:53;;;;;;;11.57;3.55;;;;;;;24.93;55.38;98441.38;5116399;28;20036;-93
2022/06/29 06:59:20;;;;;;;7.68;2.92;;;;;;;25.15;54.38;98435.69;5113291;28;20139;-92
2022/06/29 07:01:49;;;;;;;11.68;3.20;;;;;;;25.42;54.63;98450.50;5114207;28;20036;-92
2022/06/29 07:04:22;;;;;;;8.70;3.47;;;;;;;25.21;55.33;98450.63;5114123;28;20086;-92
2022/06/29 07:06:54;;;;;;;14.07;4.40;;;;;;;25.30;54.87;98454.34;5115200;28;20133;-94
2022/06/29 07:09:41;;;;;;;11.27;3.42;;;;;;;25.65;53.98;98444.75;5113122;28;20071;-93
2022/06/29 07:18:50;;;;;;;9.38;3.65;;;;;;;25.87;53.21;98451.72;5099678;28;20044;-94
2022/06/29 07:21:31;;;;;;;13.32;3.05;;;;;;;25.88;52.97;98446.16;5104820;28;20044;-93
2022/06/29 07:24:30;;;;;;;5.93;3.00;;;;;;;25.92;53.58;98454.91;5095610;28;20436;-94
2022/06/29 07:27:16;;;;;;;10.75;3.53;;;;;;;26.39;52.18;98469.41;5108978;28;20055;-93
2022/06/29 07:30:15;;;;;;;9.00;3.20;;;;;;;26.88;49.76;98449.25;5113829;28;20039;-92
2022/06/29 07:33:03;;;;;;;13.27;3.83;;;;;;;26.66;51.11;98464.16;5110898;28;20070;-95
2022/06/29 07:35:48;;;;;;;12.10;3.25;;;;;;;26.48;51.36;98467.66;5103276;28;20047;-91
2022/06/29 07:38:32;;;;;;;9.45;3.38;;;;;;;26.75;50.62;98442.28;5094477;28;20428;-93
2022/06/29 07:41:05;;;;;;;10.20;3.30;;;;;;;26.90;49.64;98469.06;5112836;28;20070;-93
2022/06/29 07:43:55;;;;;;;11.95;3.20;;;;;;;26.38;51.08;98434.97;5115514;28;20070;-93
2022/06/29 07:46:33;;;;;;;7.43;3.13;;;;;;;26.63;49.84;98438.03;5109776;28;20040;-93
2022/06/29 07:49:11;;;;;;;8.98;3.25;;;;;;;26.75;49.63;98455.91;5117127;28;20044;-92
2022/06/29 07:51:47;;;;;;;10.85;3.50;;;;;;;26.25;50.39;98447.22;5118299;28;20047;-93
2022/06/29 07:54:36;;;;;;;10.98;3.42;;;;;;;25.99;51.42;98465.06;5089267;28;20433;-94
2022/06/29 07:57:03;;;;;;;8.27;3.15;;;;;;;26.31;51.19;98443.91;5100014;28;20044;-96
2022/06/29 07:59:43;;;;;;;11.13;3.60;;;;;;;26.79;49.28;98457.34;5102052;28;20035;-95
2022/06/29 08:02:11;;;;;;;8.93;3.33;;;;;;;25.99;50.42;98448.72;5102921;28;20386;-92
2022/06/29 08:04:37;;;;;;;;;;;;;;;26.03;51.16;98482.84;5103579;28;20532;-93
2022/06/29 08:07:35;;;;;;;11.80;3.05;;;;;;;26.28;50.37;98446.91;5101292;28;19922;-95
2022/06/29 08:10:08;;;;;;;12.18;3.40;;;;;;;25.89;51.35;98461.50;5102084;28;20052;-96
2022/06/29 08:13:02;;;;;;;11.07;3.55;;;;;;;25.81;51.80;98483.16;5095801;28;20036;-93
2022/06/29 08:15:36;;;;;;;10.38;3.20;;;;;;;26.14;50.50;98456.44;5100517;28;20044;-95
2022/06/29 08:18:19;;;;;;;9.15;4.40;;;;;;;26.43;49.84;98467.22;5101630;28;20044;-93
2022/06/29 08:20:45;;;;;;;9.25;3.70;;;;;;;26.74;48.88;98451.50;5102836;28;20040;-94
2022/06/29 08:23:18;;;;;;;;;;;;;;;27.06;49.16;98485.59;5103200;28;20557;-95
2022/06/29 08:25:58;;;;;;;9.93;3.45;;;;;;;27.04;49.42;98439.38;5099411;28;19920;-93
2022/06/29 08:28:25;;;;;;;;;;;;;;;27.60;47.87;98472.88;5101610;28;20044;-95
2022/06/29 08:30:59;;;;;;;10.48;3.33;;;;;;;27.84;47.11;98444.03;5101022;28;20007;-93
2022/06/29 08:34:07;;;;;;;9.10;3.42;;;;;;;28.18;45.48;98468.75;5101417;28;20064;-94
2022/06/29 08:36:43;;;;;;;8.75;4.53;;;;;;;27.91;45.91;98453.38;5093460;28;20079;-95
2022/06/29 08:39:43;;;;;;;11.63;3.42;;;;;;;28.03;47.01;98445.75;5100028;28;20052;-95
2022/06/29 08:42:26;;;;;;;10.25;3.40;;;;;;;28.46;45.78;98450.28;5098960;28;20048;-92
2022/06/29 08:45:27;;;;;;;9.25;3.25;;;;;;;28.28;43.90;98438.56;5060376;28;20064;-94
2022/06/29 08:48:13;;;;;;;10.05;3.42;;;;;;;27.76;46.13;98450.31;5061782;28;20083;-94
2022/06/29 08:50:53;;;;;;;11.02;3.55;;;;;;;27.57;46.00;98443.16;5060932;28;20394;-94
2022/06/29 08:53:23;;;;;;;7.78;3.08;;;;;;;27.30;46.22;98441.34;5061706;28;20033;-94
2022/06/29 08:55:52;;;;;;;10.40;3.63;;;;;;;26.95;47.99;98485.81;5059463;28;20052;-93
2022/06/29 08:58:26;;;;;;;8.27;3.08;;;;;;;26.49;49.49;98461.19;5059717;28;20044;-94
2022/06/29 09:01:20;;;;;;;9.45;3.50;;;;;;;26.79;48.68;98440.97;5061295;28;20036;-96
2022/06/29 09:03:56;;;;;;;6.28;3.00;;;;;;;26.94;47.27;98445.91;5061517;28;20038;-92
2022/06/29 09:07:10;;;;;;;8.43;3.55;;;;;;;27.83;45.11;98445.06;5061796;28;20045;-95
2022/06/29 09:10:13;;;;;;;9.50;3.60;;;;;;;28.66;44.50;98439.97;5059200;28;20124;-94
2022/06/29 09:12:53;;;;;;;9.90;3.70;;;;;;;28.42;43.22;98434.34;5053181;28;20037;-95
2022/06/29 09:15:40;;;;;;;9.35;3.30;;;;;;;28.12;44.06;98452.97;5059907;28;20459;-94
2022/06/29 09:18:33;;;;;;;7.97;3.28;;;;;;;27.62;44.97;98446.25;5059226;28;20049;-92
2022/06/29 09:21:11;;;;;;;7.95;3.60;;;;;;;28.17;44.84;98457.97;5060775;28;20122;-95
2022/06/29 09:24:33;;;;;;;6.68;3.63;;;;;;;28.01;45.88;98440.44;5052165;28;20040;-94
2022/06/29 09:27:15;;;;;;;5.90;3.28;;;;;;;28.52;44.26;98447.94;4994343;28;20053;-95
2022/06/29 09:29:58;;;;;;;9.13;3.58;;;;;;;29.00;42.17;98487.50;5002783;28;20043;-93
2022/06/29 09:39:38;;;;;;;7.90;3.42;;;;;;;28.83;42.96;98473.72;4938214;29;20620;-92
2022/06/29 09:42:40;;;;;;;9.32;3.78;;;;;;;28.13;44.18;98454.72;4939816;29;20082;-95
2022/06/29 09:45:20;;;;;;;9.38;3.90;;;;;;;28.47;43.71;98475.75;4944161;29;20055;-96
2022/06/29 09:47:47;;;;;;;7.20;3.33;;;;;;;27.94;44.50;98450.31;4950062;29;20058;-92
2022/06/29 09:50:33;;;;;;;11.38;3.40;;;;;;;28.15;44.32;98455.41;4957005;29;20527;-96
2022/06/29 09:53:48;;;;;;;8.15;3.33;;;;;;;28.71;43.45;98458.63;4956627;28;20055;-95
2022/06/29 10:14:38;;;;;;;11.38;3.38;;;;;;;29.72;40.24;98432.19;6263617;22;20340;-95
2022/06/29 10:17:17;;;;;;;8.30;3.53;;;;;;;29.15;40.89;98457.59;6261143;22;20022;-91
2022/06/29 10:20:19;;;;;;;;;;;;;;;;;;;;;
2022/06/29 10:23:15;;;;;;;8.25;3.92;;;;;;;29.12;41.64;98433.28;6263456;22;20012;-94
2022/06/29 10:25:56;;;;;;;8.15;3.22;;;;;;;29.20;40.61;98423.22;6262556;23;20020;-94
2022/06/29 10:28:24;;;;;;;8.73;3.53;;;;;;;29.57;41.32;98413.66;6263790;23;20026;-95
2022/06/29 10:31:07;;;;;;;9.30;3.72;;;;;;;29.46;40.69;98435.91;6260450;22;20020;-93
2022/06/29 10:33:38;;;;;;;8.48;3.85;;;;;;;29.60;40.23;98437.09;6258329;23;20016;-94
2022/06/29 10:36:06;;;;;;;7.20;3.50;;;;;;;29.37;41.09;98435.06;6256946;22;20016;-91
2022/06/29 10:38:52;;;;;;;8.50;3.40;;;;;;;29.49;41.74;98410.91;6261563;23;20020;-94
2022/06/29 10:45:19;;;;;;;;;;;;;;;;;;;;;
2022/06/29 10:48:20;;;;;;;9.90;4.07;;;;;;;28.38;41.50;98427.50;5132355;28;20100;-91
2022/06/29 10:50:57;;;;;;;9.57;4.00;;;;;;;27.90;42.96;98412.53;5132075;28;20043;-92
2022/06/29 10:53:51;;;;;;;8.52;3.72;;;;;;;28.34;41.98;98413.28;5137788;27;20039;-94
2022/06/29 10:56:27;;;;;;;10.48;3.80;;;;;;;28.98;42.01;98440.25;5103899;28;20058;-93
2022/06/29 10:59:16;;;;;;;8.93;3.60;;;;;;;29.23;41.07;98402.84;5136767;27;20039;-93
2022/06/29 11:02:15;;;;;;;9.73;4.10;;;;;;;29.39;40.47;98402.03;5136032;28;20400;-95
2022/06/29 11:04:43;;;;;;;9.38;3.60;;;;;;;29.55;39.93;98399.28;5127248;28;20061;-93
2022/06/29 11:21:03;;;;;;;6.70;3.60;;;;;;;29.87;37.44;98387.47;5607292;22;15067825;-93
2022/06/29 11:23:31;;;;;;;7.32;3.42;;;;;;;30.28;38.92;98400.25;6257815;23;20028;-94
2022/06/29 11:25:58;;;;;;;9.75;3.72;;;;;;;29.86;37.93;98395.84;6252938;23;20070;-92
2022/06/29 11:28:27;;;;;;;10.30;3.80;;;;;;;29.88;37.74;98380.09;6254489;23;20449;-96
2022/06/29 11:31:00;;;;;;;10.18;3.78;;;;;;;29.71;38.49;98400.31;6254446;23;20016;-95
2022/06/29 11:33:32;;;;;;;9.50;3.60;;;;;;;29.69;37.93;98404.09;6255141;23;20103;-91
2022/06/29 11:37:12;;;;;;;;;;;;;;;;;;;;;
2022/06/29 11:39:50;;;;;;;9.27;3.42;;;;;;;29.65;37.22;98388.16;6254982;23;20016;-94
2022/06/29 11:45:52;;;;;;;8.10;3.67;;;;;;;29.25;38.83;98376.16;6234709;22;20471;-93
2022/06/29 11:48:19;;;;;;;7.90;3.35;;;;;;;29.63;38.56;98390.22;6253587;23;20016;-93
2022/06/29 11:51:03;;;;;;;8.65;3.28;;;;;;;29.69;37.48;98373.97;6224208;23;20021;-94
2022/06/29 11:54:13;;;;;;;;;;;;;;;;;;;;;
2022/06/29 11:56:46;;;;;;;;;;;;;;;29.91;36.31;98393.47;6223427;22;20033;-93
2022/06/29 11:59:16;;;;;;;10.48;3.17;;;;;;;29.91;35.79;98387.97;6221770;23;19965;-91
2022/06/29 12:01:51;;;;;;;8.30;3.03;;;;;;;30.00;37.06;98381.44;6220302;23;20521;-92
2022/06/29 12:04:26;;;;;;;8.35;3.75;;;;;;;29.94;36.81;98375.81;6220684;23;20020;-93
2022/06/29 12:07:01;;;;;;;6.18;3.20;;;;;;;30.15;36.66;98372.50;6220242;23;20024;-92
2022/06/29 12:09:30;;;;;;;10.23;3.30;;;;;;;30.16;36.54;98358.59;6220936;23;20065;-93
2022/06/29 12:11:57;;;;;;;11.73;3.67;;;;;;;30.17;35.89;98346.59;6222198;23;20069;-93
2022/06/29 12:14:26;;;;;;;7.95;3.60;;;;;;;30.41;35.47;98356.66;6221753;23;20026;-93
2022/06/29 12:16:52;;;;;;;9.18;3.50;;;;;;;30.45;35.78;98355.25;6221477;23;20486;-91
2022/06/29 12:19:17;;;;;;;10.80;3.67;;;;;;;30.56;36.65;98366.84;6220163;23;20016;-94
2022/06/29 12:21:44;;;;;;;10.82;3.95;;;;;;;30.25;36.71;98362.16;6212918;23;20024;-93
2022/06/29 12:24:09;;;;;;;8.52;3.72;;;;;;;30.39;36.02;98358.72;6214505;23;20012;-92
2022/06/29 12:26:37;;;;;;;9.88;3.45;;;;;;;30.68;35.60;98354.44;6214101;23;20024;-94
2022/06/29 12:29:06;;;;;;;7.95;3.80;;;;;;;30.35;36.22;98365.59;6214930;23;20020;-94
2022/06/29 12:31:34;;;;;;;8.98;3.60;;;;;;;30.22;36.62;98321.38;6219417;23;20064;-89
2022/06/29 12:34:00;;;;;;;8.43;3.28;;;;;;;30.78;36.85;98346.84;6213106;23;20046;-94
2022/06/29 12:36:26;;;;;;;9.27;3.20;;;;;;;31.21;35.13;98351.91;6215191;23;20017;-92
2022/06/29 12:38:54;;;;;;;6.50;3.20;;;;;;;30.97;35.27;98351.06;6214646;23;20458;-93
2022/06/29 12:41:20;;;;;;;;;;;;;;;31.40;36.20;98345.03;6215848;23;20121;-94
2022/06/29 12:43:50;;;;;;;10.25;3.70;;;;;;;31.49;34.29;98339.34;6214273;23;20003;-93
2022/06/29 12:46:18;;;;;;;6.88;3.30;;;;;;;31.47;34.81;98307.59;6215712;23;20017;-95
2022/06/29 12:48:56;;;;;;;8.57;3.28;;;;;;;31.51;34.05;98311.66;6217261;23;20068;-93
2022/06/29 12:51:33;;;;;;;8.48;3.20;;;;;;;31.46;34.65;98327.84;6214865;23;20048;-94
2022/06/29 12:54:24;;;;;;;7.85;3.67;;;;;;;31.49;34.19;98322.00;6215978;23;20376;-93
2022/06/29 12:56:53;;;;;;;9.10;3.47;;;;;;;31.31;34.43;98320.38;6206766;23;20021;-95
2022/06/29 12:59:23;;;;;;;9.13;3.60;;;;;;;31.43;33.89;98306.25;6213731;23;20036;-93
2022/06/29 13:01:51;;;;;;;7.93;3.55;;;;;;;31.25;34.67;98317.53;6213328;23;20023;-94